createdAt,value
2023-01-18T00:01:37.821Z,-0.65
2023-01-18T00:06:41.280Z,-0.71
2023-01-18T00:11:44.829Z,-0.75
2023-01-18T00:16:47.991Z,-0.76
2023-01-18T00:21:54.221Z,-0.76
2023-01-18T00:26:56.404Z,-0.75
2023-01-18T00:31:58.568Z,-0.67
2023-01-18T00:37:01.307Z,-0.61
2023-01-18T00:42:22.861Z,-0.54
2023-01-18T00:47:26.408Z,-0.47
2023-01-18T00:52:30.344Z,-0.44
2023-01-18T00:57:33.269Z,-0.45
2023-01-18T01:02:42.653Z,-0.42
2023-01-18T01:07:49.235Z,-0.35
2023-01-18T01:13:11.601Z,-0.33
2023-01-18T01:18:33.993Z,-0.35
2023-01-18T01:23:56.249Z,-0.26
2023-01-18T01:29:00.453Z,-0.22
2023-01-18T01:34:02.711Z,-0.16
2023-01-18T01:39:07.262Z,-0.13
2023-01-18T01:44:25.427Z,-0.11
2023-01-18T01:49:32.885Z,-0.10
2023-01-18T01:55:04.678Z,-0.11
2023-01-18T02:00:12.262Z,-0.10
2023-01-18T02:05:17.354Z,-0.06
2023-01-18T02:10:19.634Z,0.02
2023-01-18T02:15:26.441Z,0.13
2023-01-18T02:20:33.644Z,0.31
2023-01-18T02:26:13.547Z,0.50
2023-01-18T02:31:22.905Z,0.69
2023-01-18T02:36:49.395Z,0.84
2023-01-18T02:42:17.834Z,0.99
2023-01-18T02:47:23.586Z,1.12
2023-01-18T02:52:48.490Z,1.18
2023-01-18T02:57:56.845Z,1.22
2023-01-18T03:03:02.642Z,1.28
2023-01-18T03:08:16.277Z,1.36
2023-01-18T03:13:34.097Z,1.46
2023-01-18T03:19:27.467Z,1.52
2023-01-18T03:24:30.850Z,1.55
2023-01-18T03:29:51.348Z,1.58
2023-01-18T03:35:17.393Z,1.62
2023-01-18T03:40:27.565Z,1.66
2023-01-18T03:45:50.052Z,1.70
2023-01-18T03:51:00.667Z,1.73
2023-01-18T03:56:17.558Z,1.76
2023-01-18T04:01:20.281Z,1.78
2023-01-18T04:06:23.986Z,1.78
2023-01-18T04:11:27.056Z,1.81
2023-01-18T04:16:29.918Z,1.84
2023-01-18T04:21:34.122Z,1.84
2023-01-18T04:26:37.441Z,1.82
2023-01-18T04:31:39.576Z,1.81
2023-01-18T04:36:42.327Z,1.82
2023-01-18T04:41:44.998Z,1.82
2023-01-18T04:46:49.149Z,1.86
2023-01-18T04:51:52.982Z,1.90
2023-01-18T04:56:56.336Z,1.89
2023-01-18T05:01:59.146Z,1.85
2023-01-18T05:07:01.694Z,1.85
2023-01-18T05:12:04.605Z,1.83
2023-01-18T05:17:07.810Z,1.76
2023-01-18T05:22:11.547Z,1.74
2023-01-18T05:27:15.268Z,1.73
2023-01-18T05:32:18.486Z,1.65
2023-01-18T05:37:23.702Z,1.59
2023-01-18T05:42:26.756Z,1.54
2023-01-18T05:47:29.574Z,1.52
2023-01-18T05:52:34.682Z,1.55
2023-01-18T05:57:38.140Z,1.54
2023-01-18T06:02:40.744Z,1.50
2023-01-18T06:07:43.750Z,1.47
2023-01-18T06:12:47.343Z,1.46
2023-01-18T06:17:50.921Z,1.48
2023-01-18T06:22:54.876Z,1.47
2023-01-18T06:27:58.579Z,1.47
2023-01-18T06:33:06.934Z,1.43
2023-01-18T06:38:10.501Z,1.40
2023-01-18T06:43:14.573Z,1.35
2023-01-18T06:48:17.728Z,1.31
2023-01-18T06:53:21.392Z,1.31
2023-01-18T06:58:25.611Z,1.33
2023-01-18T07:03:29.640Z,1.36
2023-01-18T07:08:34.194Z,1.40
2023-01-18T07:13:43.889Z,1.41
2023-01-18T07:18:49.216Z,1.37
2023-01-18T07:23:53.544Z,1.33
2023-01-18T07:28:58.163Z,1.33
2023-01-18T07:34:00.620Z,1.33
2023-01-18T07:39:03.041Z,1.34
2023-01-18T07:44:05.935Z,1.34
2023-01-18T07:49:08.992Z,1.36
2023-01-18T07:54:11.729Z,1.40
2023-01-18T07:59:14.906Z,1.46
2023-01-18T08:04:18.605Z,1.49
2023-01-18T08:09:21.346Z,1.46
2023-01-18T08:14:23.560Z,1.48
2023-01-18T08:19:26.343Z,1.50
2023-01-18T08:24:28.963Z,1.56
2023-01-18T08:29:31.686Z,1.63
2023-01-18T08:34:33.755Z,1.69
2023-01-18T08:39:38.263Z,1.71
2023-01-18T08:44:41.150Z,1.67
2023-01-18T08:49:44.223Z,1.70
2023-01-18T08:54:47.270Z,1.78
2023-01-18T08:59:52.858Z,1.78
2023-01-18T09:04:55.108Z,1.76
2023-01-18T09:09:58.415Z,1.77
2023-01-18T09:15:01.632Z,1.75
2023-01-18T09:20:09.816Z,1.76
2023-01-18T09:25:13.878Z,1.83
2023-01-18T09:30:17.500Z,1.84
2023-01-18T09:35:20.429Z,1.83
2023-01-18T09:40:27.609Z,1.87
2023-01-18T09:45:34.957Z,1.91
2023-01-18T09:50:45.255Z,1.88
2023-01-18T09:55:57.113Z,1.88
2023-01-18T10:01:05.794Z,1.92
2023-01-18T10:06:16.019Z,1.98
2023-01-18T10:11:22.698Z,2.06
2023-01-18T10:16:25.321Z,2.10
2023-01-18T10:21:41.746Z,2.11
2023-01-18T10:26:48.042Z,2.10
2023-01-18T10:31:59.238Z,2.11
2023-01-18T10:37:14.758Z,2.16
2023-01-18T10:42:45.121Z,2.15
2023-01-18T10:47:48.668Z,2.12
2023-01-18T10:52:51.122Z,2.13
2023-01-18T10:57:54.705Z,2.08
2023-01-18T11:02:59.583Z,2.06
2023-01-18T11:08:22.690Z,2.03
2023-01-18T11:13:27.451Z,2.02
2023-01-18T11:18:29.977Z,1.98
2023-01-18T11:23:37.265Z,1.97
2023-01-18T11:28:45.819Z,1.98
2023-01-18T11:34:08.491Z,1.98
2023-01-18T11:39:18.147Z,1.93
2023-01-18T11:44:30.976Z,2.00
2023-01-18T11:49:44.953Z,2.08
2023-01-18T11:54:56.094Z,2.09
2023-01-18T11:59:58.874Z,2.14
2023-01-18T12:05:22.642Z,2.20
2023-01-18T12:10:32.250Z,2.27
2023-01-18T12:15:42.786Z,2.31
2023-01-18T12:21:03.510Z,2.35
2023-01-18T12:26:48.661Z,2.46
2023-01-18T12:32:13.269Z,2.49
2023-01-18T12:37:43.183Z,2.51
2023-01-18T12:42:51.697Z,2.48
2023-01-18T12:48:05.727Z,2.50
2023-01-18T12:53:50.236Z,2.48
2023-01-18T12:59:01.270Z,2.38
2023-01-18T13:04:18.429Z,2.27
2023-01-18T13:09:28.610Z,2.21
2023-01-18T13:15:05.523Z,2.16
2023-01-18T13:20:11.722Z,2.12
2023-01-18T13:25:38.576Z,2.01
2023-01-18T13:31:02.325Z,1.91
2023-01-18T13:36:11.867Z,1.90
2023-01-18T13:41:17.294Z,1.93
2023-01-18T13:46:25.098Z,1.86
2023-01-18T13:51:40.340Z,1.78
2023-01-18T13:57:06.216Z,1.71
2023-01-18T14:02:34.968Z,1.72
2023-01-18T14:07:44.308Z,1.71
2023-01-18T14:12:54.279Z,1.71
2023-01-18T14:17:59.373Z,1.68
2023-01-18T14:23:28.938Z,1.66
2023-01-18T14:28:56.145Z,1.73
2023-01-18T14:34:19.194Z,1.74
2023-01-18T14:39:23.211Z,1.75
2023-01-18T14:44:57.277Z,1.73
2023-01-18T14:50:04.891Z,1.72
2023-01-18T14:55:24.292Z,1.71
2023-01-18T15:00:27.917Z,1.71
2023-01-18T15:05:31.229Z,1.63
2023-01-18T15:10:36.046Z,1.58
2023-01-18T15:15:42.255Z,1.59
2023-01-18T15:20:56.919Z,1.57
2023-01-18T15:25:59.831Z,1.56
2023-01-18T15:31:16.507Z,1.54
2023-01-18T15:36:20.055Z,1.56
2023-01-18T15:41:23.453Z,1.54
2023-01-18T15:46:29.071Z,1.46
2023-01-18T15:51:58.587Z,1.42
2023-01-18T15:57:19.333Z,1.43
2023-01-18T16:02:23.802Z,1.42
2023-01-18T16:07:41.910Z,1.43
2023-01-18T16:12:48.258Z,1.40
2023-01-18T16:17:57.016Z,1.32
2023-01-18T16:23:09.249Z,1.34
2023-01-18T16:28:13.053Z,1.38
2023-01-18T16:33:20.122Z,1.36
2023-01-18T16:38:24.788Z,1.34
2023-01-18T16:43:32.600Z,1.32
2023-01-18T16:48:40.189Z,1.30
2023-01-18T16:53:44.789Z,1.26
2023-01-18T16:58:49.813Z,1.25
2023-01-18T17:03:54.584Z,1.30
2023-01-18T17:09:06.472Z,1.29
2023-01-18T17:14:11.834Z,1.21
2023-01-18T17:19:24.388Z,1.19
2023-01-18T17:24:28.861Z,1.20
2023-01-18T17:29:34.879Z,1.15
2023-01-18T17:34:39.789Z,1.15
2023-01-18T17:39:44.287Z,1.19
2023-01-18T17:45:04.209Z,1.22
2023-01-18T17:50:13.955Z,1.20
2023-01-18T17:55:19.637Z,1.18
2023-01-18T18:00:27.577Z,1.20
2023-01-18T18:05:30.407Z,1.22
2023-01-18T18:10:33.356Z,1.23
2023-01-18T18:15:35.290Z,1.22
2023-01-18T18:20:41.388Z,1.22
2023-01-18T18:25:45.728Z,1.25
2023-01-18T18:30:48.486Z,1.27
2023-01-18T18:35:51.699Z,1.27
2023-01-18T18:40:54.843Z,1.29
2023-01-18T18:45:57.313Z,1.32
2023-01-18T18:51:04.134Z,1.31
2023-01-18T18:56:10.574Z,1.27
2023-01-18T19:01:24.702Z,1.23
2023-01-18T19:06:30.526Z,1.28
2023-01-18T19:11:39.488Z,1.32
2023-01-18T19:16:45.864Z,1.33
2023-01-18T19:21:51.016Z,1.30
2023-01-18T19:26:56.158Z,1.28
2023-01-18T19:32:01.581Z,1.32
2023-01-18T19:37:08.805Z,1.33
2023-01-18T19:42:19.307Z,1.37
2023-01-18T19:47:44.076Z,1.38
2023-01-18T19:53:02.325Z,1.34
2023-01-18T19:58:35.425Z,1.36
2023-01-18T20:09:20.305Z,1.49
2023-01-18T20:14:40.434Z,1.47
2023-01-18T20:19:45.196Z,1.44
2023-01-18T20:24:49.161Z,1.47
2023-01-18T20:29:52.440Z,1.54
2023-01-18T20:34:57.500Z,1.56
2023-01-18T20:40:00.201Z,1.56
2023-01-18T20:45:04.561Z,1.61
2023-01-18T20:50:07.291Z,1.62
2023-01-18T20:55:16.032Z,1.62
2023-01-18T21:00:35.909Z,1.57
2023-01-18T21:05:45.762Z,1.51
2023-01-18T21:10:48.346Z,1.53
2023-01-18T21:15:57.935Z,1.57
2023-01-18T21:21:00.798Z,1.59
2023-01-18T21:26:04.523Z,1.60
2023-01-18T21:31:10.408Z,1.60
2023-01-18T21:36:20.355Z,1.59
2023-01-18T21:41:42.514Z,1.57
2023-01-18T21:46:50.749Z,1.51
2023-01-18T21:52:12.199Z,1.49
2023-01-18T21:57:14.783Z,1.52
2023-01-18T22:02:17.749Z,1.54
2023-01-18T22:07:20.834Z,1.44
2023-01-18T22:12:23.785Z,1.46
2023-01-18T22:17:25.923Z,1.52
2023-01-18T22:22:28.306Z,1.59
2023-01-18T22:27:31.057Z,1.59
2023-01-18T22:32:35.102Z,1.55
2023-01-18T22:37:39.325Z,1.63
2023-01-18T22:42:44.517Z,1.67
2023-01-18T22:47:49.564Z,1.71
2023-01-18T22:52:55.928Z,1.74
2023-01-18T22:58:01.859Z,1.81
2023-01-18T23:03:08.173Z,1.81
2023-01-18T23:08:12.845Z,1.73
2023-01-18T23:13:15.331Z,1.62
2023-01-18T23:18:18.744Z,1.62
2023-01-18T23:23:22.639Z,1.64
2023-01-18T23:28:43.545Z,1.68
2023-01-18T23:33:47.426Z,1.73
2023-01-18T23:39:09.270Z,1.78
2023-01-18T23:44:30.954Z,1.74
2023-01-18T23:49:53.292Z,1.63
2023-01-18T23:54:57.381Z,1.53
